Leesburg, Kentucky
Current Conditions -  °F | °C
As of 5:15 PM on Monday 20 Oct 2014 (Local Time) from KIOB Reporting Station
Broken Clouds Broken Clouds  
Wind Chill: 59°   Ceiling: 10000
Heat Index: 59°   Visibility: 10mi
Dew Point: 46°   Wind: 16mph
Humidity: 63%   Direction: 240°WSW
Pressure: 29.92"   Gusts: 22mph
Location:  38.4145°N, 84.2859°W
Report Text: KIOB 202115Z AUTO 24014G19KT 10SM SCT065 SCT080 BKN100 15/08 A2992 RMK AO2
Loading
Personal Weather Stations






























Interactive Weather Map
Tropical Storm Tracking
New forecast layout! Learn more

10-Day Weather Forecast

Advertisements
Track Severe Weather on mobile